Terminal Aerodrome Forecast
Issued by NWS Duluth, MN

Home | Current Version | Previous Version | Text Only | Print | Product List | Glossary On
Versions: 1 2 3 4 5 6 7 8 9 10 11 12 13 14 15 16 17 18 19 20 21 22 23 24 25 26
270
FTUS43 KDLH 231521 AAA
TAFDLH
TAF AMD
KDLH 231521Z 2315/2412 33011KT P6SM OVC010
      TEMPO 2315/2317 SCT020
     FM231700 35007KT P6SM SCT025
     FM240000 01008KT P6SM SCT030 SCT100 OVC120=

USA.gov is the U.S. government's official web portal to all federal, state and local government web resources and services.